createdAt,value
2018-04-25T00:00:37.919Z,983.27
2018-04-25T00:01:38.121Z,983.25
2018-04-25T00:02:38.340Z,983.20
2018-04-25T00:03:38.561Z,983.23
2018-04-25T00:04:41.579Z,983.21
2018-04-25T00:05:38.930Z,983.23
2018-04-25T00:06:39.147Z,983.20
2018-04-25T00:07:39.352Z,983.20
2018-04-25T00:08:39.583Z,983.20
2018-04-25T00:09:39.793Z,983.20
2018-04-25T00:10:39.995Z,983.16
2018-04-25T00:11:40.226Z,983.24
2018-04-25T00:12:40.432Z,983.17
2018-04-25T00:13:42.573Z,983.16
2018-04-25T00:14:40.780Z,983.20
2018-04-25T00:15:40.988Z,983.16
2018-04-25T00:16:43.074Z,983.15
2018-04-25T00:17:41.417Z,983.11
2018-04-25T00:18:41.624Z,983.07
2018-04-25T00:19:41.842Z,983.11
2018-04-25T00:20:42.042Z,983.10
2018-04-25T00:21:42.267Z,983.02
2018-04-25T00:22:42.487Z,983.05
2018-04-25T00:23:42.689Z,983.07
2018-04-25T00:24:42.902Z,983.06
2018-04-25T00:25:43.117Z,983.02
2018-04-25T00:26:43.326Z,983.00
2018-04-25T00:27:43.541Z,982.97
2018-04-25T00:28:45.579Z,982.94
2018-04-25T00:29:43.907Z,982.96
2018-04-25T00:30:44.139Z,982.91
2018-04-25T00:31:44.341Z,982.88
2018-04-25T00:32:44.546Z,982.89
2018-04-25T00:33:44.762Z,982.87
2018-04-25T00:34:46.577Z,982.84
2018-04-25T00:35:45.154Z,982.87
2018-04-25T00:36:45.374Z,982.88
2018-04-25T00:37:45.603Z,982.87
2018-04-25T00:38:45.807Z,982.90
2018-04-25T00:39:49.577Z,982.92
2018-04-25T00:40:46.163Z,982.89
2018-04-25T00:41:46.389Z,982.94
2018-04-25T00:42:46.596Z,982.90
2018-04-25T00:43:46.814Z,982.90
2018-04-25T00:44:48.573Z,982.90
2018-04-25T00:45:47.235Z,982.89
2018-04-25T00:46:47.377Z,982.85
2018-04-25T00:47:47.587Z,982.83
2018-04-25T00:48:47.795Z,982.83
2018-04-25T00:49:48.014Z,982.85
2018-04-25T00:50:48.255Z,982.83
2018-04-25T00:51:48.447Z,982.85
2018-04-25T00:52:48.665Z,982.86
2018-04-25T00:53:50.579Z,982.86
2018-04-25T00:54:49.043Z,982.87
2018-04-25T00:55:49.262Z,982.88
2018-04-25T00:56:49.467Z,982.93
2018-04-25T00:57:49.690Z,982.94
2018-04-25T00:58:49.900Z,982.91
2018-04-25T00:59:52.093Z,982.91
2018-04-25T01:00:50.291Z,982.89
2018-04-25T01:01:50.502Z,982.88
2018-04-25T01:02:53.019Z,982.90
2018-04-25T01:03:50.873Z,982.88
2018-04-25T01:04:51.088Z,982.84
2018-04-25T01:05:51.302Z,982.85
2018-04-25T01:06:51.521Z,982.84
2018-04-25T01:07:51.725Z,982.79
2018-04-25T01:08:51.936Z,982.78
2018-04-25T01:09:52.143Z,982.74
2018-04-25T01:10:52.399Z,982.74
2018-04-25T01:11:52.674Z,982.69
2018-04-25T01:12:52.797Z,982.72
2018-04-25T01:13:53.014Z,982.75
2018-04-25T01:14:53.226Z,982.73
2018-04-25T01:15:53.431Z,982.70
2018-04-25T01:16:53.665Z,982.72
2018-04-25T01:17:53.874Z,982.73
2018-04-25T01:18:54.071Z,982.71
2018-04-25T01:19:54.282Z,982.68
2018-04-25T01:20:54.488Z,982.67
2018-04-25T01:21:54.697Z,982.67
2018-04-25T01:22:54.914Z,982.65
2018-04-25T01:23:55.127Z,982.66
2018-04-25T01:24:58.082Z,982.62
2018-04-25T01:25:55.547Z,982.61
2018-04-25T01:26:55.757Z,982.58
2018-04-25T01:27:55.977Z,982.59
2018-04-25T01:28:56.188Z,982.62
2018-04-25T01:29:56.394Z,982.59
2018-04-25T01:30:56.612Z,982.53
2018-04-25T01:31:56.827Z,982.54
2018-04-25T01:32:57.041Z,982.52
2018-04-25T01:33:57.257Z,982.55
2018-04-25T01:34:57.478Z,982.52
2018-04-25T01:35:57.705Z,982.50
2018-04-25T01:36:57.912Z,982.48
2018-04-25T01:37:58.117Z,982.49
2018-04-25T01:38:58.333Z,982.47
2018-04-25T01:39:58.543Z,982.46
2018-04-25T01:40:58.752Z,982.44
2018-04-25T01:41:58.971Z,982.43
2018-04-25T01:42:59.178Z,982.43
2018-04-25T01:44:01.079Z,982.45
2018-04-25T01:44:59.544Z,982.37
2018-04-25T01:45:59.749Z,982.39
2018-04-25T01:46:59.964Z,982.38
2018-04-25T01:48:00.186Z,982.36
2018-04-25T01:49:00.395Z,982.38
2018-04-25T01:50:00.613Z,982.34
2018-04-25T01:51:00.837Z,982.32
2018-04-25T01:52:01.034Z,982.34
2018-04-25T01:53:03.086Z,982.37
2018-04-25T01:54:01.428Z,982.33
2018-04-25T01:55:01.642Z,982.34
2018-04-25T01:56:01.854Z,982.32
2018-04-25T01:57:02.066Z,982.30
2018-04-25T01:58:04.077Z,982.27
2018-04-25T01:59:02.411Z,982.26
2018-04-25T02:00:02.628Z,982.22
2018-04-25T02:01:02.890Z,982.20
2018-04-25T02:02:03.048Z,982.21
2018-04-25T02:03:03.262Z,982.21
2018-04-25T02:04:03.489Z,982.21
2018-04-25T02:05:03.687Z,982.20
2018-04-25T02:06:03.907Z,982.15
2018-04-25T02:07:06.076Z,982.14
2018-04-25T02:08:04.291Z,982.15
2018-04-25T02:09:04.505Z,982.14
2018-04-25T02:10:04.711Z,982.15
2018-04-25T02:11:04.916Z,982.12
2018-04-25T02:12:05.145Z,982.11
2018-04-25T02:13:05.348Z,982.11
2018-04-25T02:14:05.560Z,982.07
2018-04-25T02:15:05.776Z,982.14
2018-04-25T02:16:05.980Z,982.11
2018-04-25T02:17:06.190Z,982.12
2018-04-25T02:18:06.417Z,982.10
2018-04-25T02:19:08.585Z,982.10
2018-04-25T02:20:06.804Z,982.09
2018-04-25T02:21:07.023Z,982.09
2018-04-25T02:22:07.228Z,982.03
2018-04-25T02:23:11.076Z,982.05
2018-04-25T02:24:07.654Z,982.01
2018-04-25T02:25:07.895Z,981.98
2018-04-25T02:26:08.073Z,981.99
2018-04-25T02:27:08.290Z,982.02
2018-04-25T02:28:08.498Z,981.99
2018-04-25T02:29:08.726Z,982.00
2018-04-25T02:30:08.930Z,981.99
2018-04-25T02:31:09.143Z,982.01
2018-04-25T02:32:12.083Z,981.95
2018-04-25T02:33:09.544Z,981.97
2018-04-25T02:34:09.772Z,981.89
2018-04-25T02:35:09.962Z,981.88
2018-04-25T02:36:10.175Z,981.89
2018-04-25T02:37:12.081Z,981.92
2018-04-25T02:38:12.083Z,981.87
2018-04-25T02:39:10.683Z,981.86
2018-04-25T02:40:10.891Z,981.87
2018-04-25T02:41:11.101Z,981.88
2018-04-25T02:42:11.312Z,981.83
2018-04-25T02:43:11.525Z,981.83
2018-04-25T02:44:11.732Z,981.81
2018-04-25T02:45:11.947Z,981.80
2018-04-25T02:46:12.156Z,981.83
2018-04-25T02:47:14.081Z,981.79
2018-04-25T02:48:14.088Z,981.79
2018-04-25T02:49:12.666Z,981.81
2018-04-25T02:50:12.885Z,981.83
2018-04-25T02:51:13.092Z,981.78
2018-04-25T02:52:13.305Z,981.80
2018-04-25T02:53:13.563Z,981.81
2018-04-25T02:54:13.727Z,981.77
2018-04-25T02:55:15.580Z,981.76
2018-04-25T02:56:14.180Z,981.78
2018-04-25T02:57:14.387Z,981.80
2018-04-25T02:58:14.601Z,981.85
2018-04-25T02:59:14.827Z,981.86
2018-04-25T03:00:15.019Z,981.86
2018-04-25T03:01:15.231Z,981.85
2018-04-25T03:02:15.439Z,981.84
2018-04-25T03:03:15.648Z,981.84
2018-04-25T03:04:15.875Z,981.89
2018-04-25T03:05:16.073Z,981.86
2018-04-25T03:06:16.294Z,981.86
2018-04-25T03:07:16.524Z,981.86
2018-04-25T03:08:16.720Z,981.89
2018-04-25T03:09:16.942Z,981.91
2018-04-25T03:10:19.083Z,981.87
2018-04-25T03:11:17.291Z,981.87
2018-04-25T03:12:17.518Z,981.89
2018-04-25T03:13:17.765Z,981.87
2018-04-25T03:14:19.579Z,981.88
2018-04-25T03:15:20.089Z,981.86
2018-04-25T03:16:18.311Z,981.83
2018-04-25T03:17:18.531Z,981.86
2018-04-25T03:18:18.725Z,981.86
2018-04-25T03:19:20.590Z,981.83
2018-04-25T03:20:19.174Z,981.82
2018-04-25T03:21:19.396Z,981.83
2018-04-25T03:22:19.605Z,981.79
2018-04-25T03:23:21.580Z,981.77
2018-04-25T03:24:21.592Z,981.78
2018-04-25T03:25:20.170Z,981.74
2018-04-25T03:26:20.400Z,981.76
2018-04-25T03:27:20.607Z,981.76
2018-04-25T03:28:20.827Z,981.84
2018-04-25T03:29:21.041Z,981.76
2018-04-25T03:30:21.247Z,981.80
2018-04-25T03:31:21.466Z,981.84
2018-04-25T03:32:21.695Z,981.84
2018-04-25T03:33:21.895Z,981.82
2018-04-25T03:34:24.085Z,981.81
2018-04-25T03:35:22.297Z,981.88
2018-04-25T03:36:22.513Z,981.92
2018-04-25T03:37:22.733Z,981.93
2018-04-25T03:38:24.578Z,981.88
2018-04-25T03:39:25.080Z,981.90
2018-04-25T03:40:25.082Z,981.90
2018-04-25T03:41:23.438Z,981.91
2018-04-25T03:42:23.636Z,981.90
2018-04-25T03:43:23.842Z,981.91
2018-04-25T03:44:24.058Z,981.91
2018-04-25T03:45:24.286Z,981.85
2018-04-25T03:46:24.380Z,981.81
2018-04-25T03:47:24.606Z,981.83
2018-04-25T03:48:24.822Z,981.83
2018-04-25T03:49:25.029Z,981.84
2018-04-25T03:50:25.282Z,981.87
2018-04-25T03:51:25.479Z,981.87
2018-04-25T03:52:27.587Z,981.83
2018-04-25T03:53:25.933Z,981.79
2018-04-25T03:54:26.146Z,981.82
2018-04-25T03:55:26.354Z,981.75
2018-04-25T03:56:26.566Z,981.81
2018-04-25T03:57:28.583Z,981.77
2018-04-25T03:58:28.594Z,981.79
2018-04-25T03:59:27.053Z,981.82
2018-04-25T04:00:27.256Z,981.81
2018-04-25T04:01:27.473Z,981.84
2018-04-25T04:02:27.682Z,981.84
2018-04-25T04:03:27.893Z,981.79
2018-04-25T04:04:28.110Z,981.82
2018-04-25T04:05:28.323Z,981.81
2018-04-25T04:06:30.086Z,981.76
2018-04-25T04:07:28.659Z,981.76
2018-04-25T04:08:28.860Z,981.77
2018-04-25T04:09:29.073Z,981.76
2018-04-25T04:10:29.284Z,981.76
2018-04-25T04:11:29.501Z,981.73
2018-04-25T04:12:29.721Z,981.76
2018-04-25T04:13:29.931Z,981.72
2018-04-25T04:14:30.147Z,981.71
2018-04-25T04:15:30.362Z,981.73
2018-04-25T04:16:30.565Z,981.72
2018-04-25T04:17:30.797Z,981.70
2018-04-25T04:18:32.583Z,981.69
2018-04-25T04:19:32.507Z,981.73
2018-04-25T04:20:33.080Z,981.67
2018-04-25T04:21:31.546Z,981.67
2018-04-25T04:22:36.584Z,981.68
2018-04-25T04:23:33.589Z,981.67
2018-04-25T04:24:32.044Z,981.68
2018-04-25T04:25:32.269Z,981.63
2018-04-25T04:26:32.486Z,981.62
2018-04-25T04:27:32.689Z,981.61
2018-04-25T04:28:32.891Z,981.61
2018-04-25T04:29:33.104Z,981.60
2018-04-25T04:30:33.318Z,981.61
2018-04-25T04:31:33.524Z,981.61
2018-04-25T04:32:33.728Z,981.59
2018-04-25T04:33:33.944Z,981.55
2018-04-25T04:34:34.161Z,981.60
2018-04-25T04:35:36.075Z,981.61
2018-04-25T04:36:34.537Z,981.61
2018-04-25T04:37:34.739Z,981.63
2018-04-25T04:38:34.946Z,981.60
2018-04-25T04:39:35.170Z,981.62
2018-04-25T04:40:35.375Z,981.62
2018-04-25T04:41:35.588Z,981.59
2018-04-25T04:42:35.796Z,981.62
2018-04-25T04:43:37.601Z,981.59
2018-04-25T04:44:36.186Z,981.57
2018-04-25T04:45:36.381Z,981.61
2018-04-25T04:46:40.580Z,981.62
2018-04-25T04:47:36.806Z,981.60
2018-04-25T04:48:37.017Z,981.62
2018-04-25T04:49:37.307Z,981.62
2018-04-25T04:50:39.082Z,981.67
2018-04-25T04:51:37.671Z,981.61
2018-04-25T04:52:37.880Z,981.64
2018-04-25T04:53:38.103Z,981.59
2018-04-25T04:54:38.323Z,981.60
2018-04-25T04:55:38.534Z,981.60
2018-04-25T04:56:40.594Z,981.58
2018-04-25T04:57:38.936Z,981.59
2018-04-25T04:58:39.159Z,981.57
2018-04-25T04:59:39.392Z,981.58
2018-04-25T05:00:39.581Z,981.53
2018-04-25T05:01:39.801Z,981.54
2018-04-25T05:02:40.019Z,981.54
2018-04-25T05:03:40.243Z,981.51
2018-04-25T05:04:40.456Z,981.51
2018-04-25T05:05:40.667Z,981.52
2018-04-25T05:06:40.881Z,981.54
2018-04-25T05:07:42.582Z,981.50
2018-04-25T05:08:57.080Z,981.52
2018-04-25T05:09:41.538Z,981.51
2018-04-25T05:10:41.771Z,981.52
2018-04-25T05:11:41.976Z,981.49
2018-04-25T05:12:42.200Z,981.51
2018-04-25T05:13:42.400Z,981.50
2018-04-25T05:14:42.611Z,981.48
2018-04-25T05:15:42.835Z,981.55
2018-04-25T05:16:43.034Z,981.51
2018-04-25T05:17:43.245Z,981.52
2018-04-25T05:18:43.466Z,981.52
2018-04-25T05:19:43.673Z,981.51
2018-04-25T05:20:43.890Z,981.51
2018-04-25T05:21:44.106Z,981.51
2018-04-25T05:22:44.322Z,981.51
2018-04-25T05:23:46.087Z,981.46
2018-04-25T05:24:44.764Z,981.48
2018-04-25T05:25:44.884Z,981.43
2018-04-25T05:26:45.094Z,981.48
2018-04-25T05:27:47.087Z,981.50
2018-04-25T05:28:45.431Z,981.52
2018-04-25T05:29:45.647Z,981.51
2018-04-25T05:30:45.841Z,981.55
2018-04-25T05:31:47.636Z,981.51
2018-04-25T05:32:48.096Z,981.49
2018-04-25T05:33:46.299Z,981.51
2018-04-25T05:34:46.523Z,981.52
2018-04-25T05:35:46.738Z,981.49
2018-04-25T05:36:46.940Z,981.47
2018-04-25T05:37:47.166Z,981.49
2018-04-25T05:38:47.389Z,981.48
2018-04-25T05:39:47.600Z,981.47
2018-04-25T05:40:47.824Z,981.48
2018-04-25T05:41:48.043Z,981.44
2018-04-25T05:42:48.256Z,981.55
2018-04-25T05:43:48.465Z,981.50
2018-04-25T05:44:50.583Z,981.48
2018-04-25T05:45:50.613Z,981.50
2018-04-25T05:46:48.924Z,981.48
2018-04-25T05:47:49.140Z,981.42
2018-04-25T05:48:49.344Z,981.47
2018-04-25T05:49:49.550Z,981.47
2018-04-25T05:50:49.775Z,981.47
2018-04-25T05:51:50.011Z,981.44
2018-04-25T05:52:50.213Z,981.49
2018-04-25T05:53:50.458Z,981.48
2018-04-25T05:54:50.652Z,981.53
2018-04-25T05:55:50.874Z,981.52
2018-04-25T05:56:51.110Z,981.48
2018-04-25T05:57:51.428Z,981.51
2018-04-25T05:58:53.088Z,981.52
2018-04-25T05:59:51.684Z,981.54
2018-04-25T06:00:51.892Z,981.53
2018-04-25T06:01:52.120Z,981.51
2018-04-25T06:02:52.330Z,981.51
2018-04-25T06:03:52.535Z,981.50
2018-04-25T06:04:52.757Z,981.54
2018-04-25T06:05:54.584Z,981.61
2018-04-25T06:06:53.164Z,981.57
2018-04-25T06:07:53.383Z,981.53
2018-04-25T06:08:53.590Z,981.54
2018-04-25T06:09:53.817Z,981.55
2018-04-25T06:10:54.035Z,981.55
2018-04-25T06:11:54.238Z,981.48
2018-04-25T06:12:56.086Z,981.50
2018-04-25T06:13:54.666Z,981.51
2018-04-25T06:14:54.886Z,981.50
2018-04-25T06:15:55.101Z,981.47
2018-04-25T06:16:55.300Z,981.50
2018-04-25T06:17:55.562Z,981.52
2018-04-25T06:18:55.653Z,981.48
2018-04-25T06:19:55.863Z,981.53
2018-04-25T06:20:59.586Z,981.53
2018-04-25T06:21:56.330Z,981.54
2018-04-25T06:22:56.508Z,981.49
2018-04-25T06:23:56.723Z,981.50
2018-04-25T06:24:56.936Z,981.55
2018-04-25T06:25:57.150Z,981.50
2018-04-25T06:26:57.385Z,981.53
2018-04-25T06:27:57.581Z,981.58
2018-04-25T06:28:57.788Z,981.56
2018-04-25T06:29:59.588Z,981.54
2018-04-25T06:30:58.177Z,981.54
2018-04-25T06:31:58.406Z,981.53
2018-04-25T06:32:58.611Z,981.55
2018-04-25T06:33:58.830Z,981.50
2018-04-25T06:34:59.049Z,981.58
2018-04-25T06:35:59.257Z,981.55
2018-04-25T06:36:59.468Z,981.60
2018-04-25T06:37:59.690Z,981.57
2018-04-25T06:38:59.902Z,981.55
2018-04-25T06:40:02.091Z,981.47
2018-04-25T06:41:00.307Z,981.51
2018-04-25T06:42:00.503Z,981.50
2018-04-25T06:43:00.738Z,981.51
2018-04-25T06:44:00.949Z,981.52
2018-04-25T06:45:01.268Z,981.52
2018-04-25T06:46:01.397Z,981.54
2018-04-25T06:47:03.632Z,981.50
2018-04-25T06:48:09.583Z,981.48
2018-04-25T06:49:01.927Z,981.50
2018-04-25T06:50:02.144Z,981.59
2018-04-25T06:51:02.399Z,981.55
2018-04-25T06:52:02.587Z,981.54
2018-04-25T06:53:02.797Z,981.53
2018-04-25T06:54:03.023Z,981.54
2018-04-25T06:55:05.088Z,981.56
2018-04-25T06:56:03.423Z,981.52
2018-04-25T06:57:05.589Z,981.51
2018-04-25T06:58:03.809Z,981.47
2018-04-25T06:59:04.017Z,981.44
2018-04-25T07:00:04.232Z,981.49
2018-04-25T07:01:04.438Z,981.51
2018-04-25T07:02:04.663Z,981.44
2018-04-25T07:03:04.875Z,981.49
2018-04-25T07:04:05.083Z,981.44
2018-04-25T07:05:05.303Z,981.44
2018-04-25T07:06:05.512Z,981.43
2018-04-25T07:07:05.748Z,981.42
2018-04-25T07:08:05.852Z,981.43
2018-04-25T07:09:06.052Z,981.49
2018-04-25T07:10:06.267Z,981.52
2018-04-25T07:11:08.092Z,981.54
2018-04-25T07:12:06.674Z,981.47
2018-04-25T07:13:06.901Z,981.46
2018-04-25T07:14:07.187Z,981.47
2018-04-25T07:15:07.328Z,981.50
2018-04-25T07:16:07.543Z,981.52
2018-04-25T07:17:07.754Z,981.47
2018-04-25T07:18:07.971Z,981.44
2018-04-25T07:19:08.196Z,981.44
2018-04-25T07:20:08.409Z,981.45
2018-04-25T07:21:08.634Z,981.49
2018-04-25T07:22:12.597Z,981.45
2018-04-25T07:23:09.051Z,981.44
2018-04-25T07:24:09.269Z,981.42
2018-04-25T07:25:09.477Z,981.42
2018-04-25T07:26:11.585Z,981.52
2018-04-25T07:27:11.639Z,981.52
2018-04-25T07:28:10.084Z,981.51
2018-04-25T07:29:10.316Z,981.45
2018-04-25T07:30:10.423Z,981.59
2018-04-25T07:31:10.637Z,981.55
2018-04-25T07:32:12.640Z,981.54
2018-04-25T07:33:11.043Z,981.51
2018-04-25T07:34:11.266Z,981.48
2018-04-25T07:35:11.482Z,981.51
2018-04-25T07:36:13.598Z,981.48
2018-04-25T07:37:11.839Z,981.51
2018-04-25T07:38:12.068Z,981.50
2018-04-25T07:39:12.269Z,981.53
2018-04-25T07:40:12.486Z,981.56
2018-04-25T07:41:12.699Z,981.53
2018-04-25T07:42:12.910Z,981.48
2018-04-25T07:43:13.136Z,981.48
2018-04-25T07:44:13.377Z,981.48
2018-04-25T07:45:13.569Z,981.52
2018-04-25T07:46:13.780Z,981.53
2018-04-25T07:47:13.993Z,981.54
2018-04-25T07:48:14.206Z,981.49
2018-04-25T07:49:14.417Z,981.46
2018-04-25T07:50:14.625Z,981.48
2018-04-25T07:51:16.594Z,981.48
2018-04-25T07:52:16.678Z,981.54
2018-04-25T07:53:15.179Z,981.53
2018-04-25T07:54:15.405Z,981.55
2018-04-25T07:55:15.623Z,981.56
2018-04-25T07:56:15.835Z,981.53
2018-04-25T07:57:16.045Z,981.54
2018-04-25T07:58:16.255Z,981.57
2018-04-25T07:59:16.471Z,981.52
2018-04-25T08:00:16.681Z,981.56
2018-04-25T08:01:16.888Z,981.62
2018-04-25T08:02:17.103Z,981.63
2018-04-25T08:03:17.311Z,981.62
2018-04-25T08:04:17.531Z,981.59
2018-04-25T08:05:17.751Z,981.61
2018-04-25T08:06:17.955Z,981.62
2018-04-25T08:07:18.168Z,981.65
2018-04-25T08:08:20.101Z,981.67
2018-04-25T08:09:20.094Z,981.67
2018-04-25T08:10:18.686Z,981.63
2018-04-25T08:11:18.907Z,981.65
2018-04-25T08:12:19.170Z,981.69
2018-04-25T08:13:19.335Z,981.75
2018-04-25T08:14:19.554Z,981.68
2018-04-25T08:15:19.756Z,981.68
2018-04-25T08:16:19.973Z,981.78
2018-04-25T08:17:20.178Z,981.74
2018-04-25T08:18:20.387Z,981.77
2018-04-25T08:19:20.605Z,982.02
2018-04-25T08:20:20.812Z,982.20
2018-04-25T08:21:21.020Z,981.91
2018-04-25T08:22:21.237Z,982.71
2018-04-25T08:23:21.451Z,981.89
2018-04-25T08:24:21.676Z,981.89
2018-04-25T08:25:21.885Z,982.42
2018-04-25T08:26:22.100Z,982.27
2018-04-25T08:27:22.308Z,982.83
2018-04-25T08:28:24.093Z,981.92
2018-04-25T08:29:22.688Z,982.86
2018-04-25T08:30:22.921Z,982.80
2018-04-25T08:31:25.095Z,981.97
2018-04-25T08:32:23.316Z,982.00
2018-04-25T08:33:25.111Z,981.98
2018-04-25T08:34:23.736Z,982.91
2018-04-25T08:35:23.895Z,982.53
2018-04-25T08:36:24.108Z,982.68
2018-04-25T08:37:24.330Z,982.78
2018-04-25T08:38:28.090Z,982.05
2018-04-25T08:39:26.597Z,982.15
2018-04-25T08:40:24.816Z,982.17
2018-04-25T08:41:25.048Z,982.08
2018-04-25T08:42:26.242Z,982.05
2018-04-25T08:43:27.112Z,982.08
2018-04-25T08:44:25.710Z,982.00
2018-04-25T08:45:30.605Z,981.92
2018-04-25T08:46:26.076Z,981.93
2018-04-25T08:47:26.321Z,981.82
2018-04-25T08:48:28.129Z,981.79
2018-04-25T08:49:26.556Z,981.89
2018-04-25T08:50:26.772Z,981.83
2018-04-25T08:51:27.007Z,981.78
2018-04-25T08:52:27.227Z,981.79
2018-04-25T08:53:27.449Z,981.88
2018-04-25T08:54:27.697Z,981.83
2018-04-25T08:55:27.808Z,981.85
2018-04-25T08:56:28.032Z,981.87
2018-04-25T08:57:28.291Z,981.92
2018-04-25T08:58:28.467Z,981.95
2018-04-25T08:59:28.704Z,981.90
2018-04-25T09:00:28.932Z,981.94
2018-04-25T09:01:29.140Z,981.83
2018-04-25T09:02:29.364Z,981.82
2018-04-25T09:03:29.576Z,981.93
2018-04-25T09:04:29.787Z,981.91
2018-04-25T09:05:30.016Z,981.91
2018-04-25T09:06:30.280Z,981.88
2018-04-25T09:07:30.447Z,981.96
2018-04-25T09:08:30.673Z,981.95
2018-04-25T09:09:30.883Z,981.89
2018-04-25T09:10:31.103Z,981.94
2018-04-25T09:11:33.095Z,981.92
2018-04-25T09:12:31.430Z,981.95
2018-04-25T09:13:31.661Z,981.95
2018-04-25T09:14:31.883Z,981.98
2018-04-25T09:15:32.104Z,981.98
2018-04-25T09:16:32.310Z,981.98
2018-04-25T09:17:32.525Z,982.05
2018-04-25T09:18:34.602Z,981.97
2018-04-25T09:19:32.944Z,982.01
2018-04-25T09:20:33.153Z,982.01
2018-04-25T09:21:33.360Z,982.03
2018-04-25T09:22:33.570Z,982.06
2018-04-25T09:23:33.798Z,982.13
2018-04-25T09:24:34.047Z,982.13
2018-04-25T09:25:34.250Z,982.17
2018-04-25T09:26:34.480Z,982.08
2018-04-25T09:27:34.705Z,981.99
2018-04-25T09:28:34.920Z,982.05
2018-04-25T09:29:35.151Z,981.94
2018-04-25T09:30:35.377Z,981.91
2018-04-25T09:31:35.587Z,981.84
2018-04-25T09:32:35.808Z,981.87
2018-04-25T09:33:36.019Z,981.79
2018-04-25T09:34:36.229Z,981.80
2018-04-25T09:35:38.110Z,981.77
2018-04-25T09:36:36.578Z,981.78
2018-04-25T09:37:36.806Z,981.78
2018-04-25T09:38:37.017Z,981.87
2018-04-25T09:39:37.232Z,981.90
2018-04-25T09:40:37.453Z,981.91
2018-04-25T09:41:39.617Z,981.92
2018-04-25T09:42:37.837Z,981.94
2018-04-25T09:43:38.065Z,982.01
2018-04-25T09:44:38.279Z,982.05
2018-04-25T09:45:38.503Z,981.90
2018-04-25T09:46:38.729Z,982.01
2018-04-25T09:47:38.939Z,981.99
2018-04-25T09:48:39.163Z,981.98
2018-04-25T09:49:41.098Z,982.18
2018-04-25T09:50:39.554Z,982.19
2018-04-25T09:51:39.771Z,982.18
2018-04-25T09:52:39.985Z,982.22
2018-04-25T09:53:40.194Z,982.20
2018-04-25T09:54:40.416Z,982.21
2018-04-25T09:55:42.608Z,982.23
2018-04-25T09:56:40.811Z,982.28
2018-04-25T09:57:41.117Z,982.42
2018-04-25T09:58:41.249Z,982.39
2018-04-25T09:59:41.468Z,982.37
2018-04-25T10:00:45.621Z,982.60
2018-04-25T10:01:41.828Z,982.35
2018-04-25T10:02:42.056Z,982.27
2018-04-25T10:03:42.279Z,982.16
2018-04-25T10:04:42.492Z,982.14
2018-04-25T10:05:42.705Z,982.29
2018-04-25T10:06:42.930Z,982.67
2018-04-25T10:07:43.166Z,982.32
2018-04-25T10:08:43.364Z,982.43
2018-04-25T10:09:43.580Z,982.44
2018-04-25T10:10:43.889Z,982.55
2018-04-25T10:11:44.014Z,982.45
2018-04-25T10:12:44.222Z,982.43
2018-04-25T10:13:44.448Z,982.27
2018-04-25T10:14:44.689Z,983.03
2018-04-25T10:15:46.604Z,982.25
2018-04-25T10:16:45.072Z,982.79
2018-04-25T10:17:47.112Z,983.02
2018-04-25T10:18:45.473Z,983.07
2018-04-25T10:19:47.106Z,983.16
2018-04-25T10:20:46.779Z,983.25
2018-04-25T10:21:47.615Z,982.43
2018-04-25T10:22:48.112Z,982.87
2018-04-25T10:23:46.454Z,983.15
2018-04-25T10:24:47.688Z,983.22
2018-04-25T10:25:48.609Z,983.35
2018-04-25T10:26:48.601Z,982.34
2018-04-25T10:27:47.196Z,982.26
2018-04-25T10:28:48.447Z,982.28
2018-04-25T10:29:48.599Z,982.38
2018-04-25T10:30:47.863Z,982.65
2018-04-25T10:31:47.982Z,982.35
2018-04-25T10:32:48.208Z,982.85
2018-04-25T10:33:48.425Z,982.31
2018-04-25T10:34:48.649Z,982.92
2018-04-25T10:35:48.878Z,982.86
2018-04-25T10:36:50.092Z,983.06
2018-04-25T10:37:49.313Z,983.17
2018-04-25T10:38:49.612Z,982.36
2018-04-25T10:39:53.638Z,982.44
2018-04-25T10:40:49.998Z,982.14
2018-04-25T10:41:50.093Z,982.48
2018-04-25T10:42:52.125Z,982.19
2018-04-25T10:43:50.466Z,982.14
2018-04-25T10:44:50.683Z,982.19
2018-04-25T10:45:52.603Z,982.08
2018-04-25T10:46:52.616Z,982.04
2018-04-25T10:47:52.231Z,982.04
2018-04-25T10:48:51.367Z,982.03
2018-04-25T10:49:51.479Z,982.11
2018-04-25T10:50:51.692Z,982.06
2018-04-25T10:51:51.926Z,982.02
2018-04-25T10:52:56.103Z,982.14
2018-04-25T10:53:54.118Z,982.14
2018-04-25T10:54:54.106Z,982.08
2018-04-25T10:55:56.605Z,982.14
2018-04-25T10:56:52.816Z,982.94
2018-04-25T10:57:54.609Z,982.18
2018-04-25T10:58:53.205Z,982.17
2018-04-25T10:59:55.105Z,982.19
2018-04-25T11:00:53.572Z,982.15
2018-04-25T11:01:53.792Z,982.21
2018-04-25T11:02:54.032Z,982.24
2018-04-25T11:03:54.132Z,982.32
2018-04-25T11:04:55.368Z,982.40
2018-04-25T11:05:54.608Z,982.54
2018-04-25T11:06:54.824Z,982.54
2018-04-25T11:07:55.054Z,982.62
2018-04-25T11:08:55.275Z,982.65
2018-04-25T11:09:55.488Z,982.65
2018-04-25T11:10:55.714Z,982.75
2018-04-25T11:11:59.617Z,982.81
2018-04-25T11:12:56.093Z,982.81
2018-04-25T11:13:56.336Z,982.81
2018-04-25T11:14:56.533Z,982.77
2018-04-25T11:15:56.747Z,982.77
2018-04-25T11:16:56.969Z,982.69
2018-04-25T11:17:57.181Z,982.64
2018-04-25T11:18:57.409Z,982.62
2018-04-25T11:19:59.622Z,983.32
2018-04-25T11:20:57.838Z,983.29
2018-04-25T11:21:58.065Z,983.13
2018-04-25T11:22:58.295Z,983.39
2018-04-25T11:23:58.517Z,982.75
2018-04-25T11:25:00.690Z,982.81
2018-04-25T11:25:58.945Z,982.88
2018-04-25T11:26:59.181Z,982.86
2018-04-25T11:27:59.387Z,982.87
2018-04-25T11:29:01.113Z,982.86
2018-04-25T11:29:59.838Z,982.92
2018-04-25T11:31:00.054Z,982.91
2018-04-25T11:32:00.354Z,982.92
2018-04-25T11:33:00.506Z,982.88
2018-04-25T11:34:00.717Z,982.90
2018-04-25T11:35:00.991Z,982.92
2018-04-25T11:36:01.175Z,982.89
2018-04-25T11:37:01.380Z,982.91
2018-04-25T11:38:01.600Z,982.96
2018-04-25T11:39:01.828Z,982.93
2018-04-25T11:40:02.029Z,982.92
2018-04-25T11:41:02.252Z,982.96
2018-04-25T11:42:02.476Z,983.01
2018-04-25T11:43:02.696Z,983.03
2018-04-25T11:44:02.919Z,983.20
2018-04-25T11:45:05.109Z,983.40
2018-04-25T11:46:03.319Z,983.16
2018-04-25T11:47:03.566Z,983.01
2018-04-25T11:48:03.753Z,983.00
2018-04-25T11:49:03.961Z,982.98
2018-04-25T11:50:04.183Z,982.98
2018-04-25T11:51:04.396Z,983.01
2018-04-25T11:52:04.619Z,983.02
2018-04-25T11:53:04.835Z,982.94
2018-04-25T11:54:05.052Z,982.93
2018-04-25T11:55:05.273Z,982.92
2018-04-25T11:56:07.111Z,982.89
2018-04-25T11:57:07.639Z,982.93
2018-04-25T11:58:05.831Z,983.01
2018-04-25T11:59:07.613Z,982.98
2018-04-25T12:00:06.209Z,983.08
2018-04-25T12:01:06.432Z,983.03
2018-04-25T12:02:06.646Z,983.04
2018-04-25T12:03:06.872Z,983.12
2018-04-25T12:04:07.106Z,983.13
2018-04-25T12:05:07.343Z,983.12
2018-04-25T12:06:07.548Z,983.20
2018-04-25T12:07:09.652Z,983.32
2018-04-25T12:08:07.958Z,983.13
2018-04-25T12:09:10.112Z,983.33
2018-04-25T12:10:08.321Z,983.91
2018-04-25T12:11:10.113Z,983.85
2018-04-25T12:12:08.710Z,983.88
2018-04-25T12:13:08.991Z,983.87
2018-04-25T12:14:09.133Z,983.64
2018-04-25T12:15:09.343Z,983.82
2018-04-25T12:16:09.568Z,983.32
2018-04-25T12:17:09.801Z,983.32
2018-04-25T12:18:10.015Z,983.24
2018-04-25T12:19:10.255Z,983.25
2018-04-25T12:20:10.466Z,983.23
2018-04-25T12:21:10.696Z,983.22
2018-04-25T12:22:10.919Z,983.27
2018-04-25T12:23:11.181Z,983.18
2018-04-25T12:24:13.130Z,983.27
2018-04-25T12:25:13.126Z,983.15
2018-04-25T12:26:11.734Z,983.20
2018-04-25T12:27:11.946Z,983.21
2018-04-25T12:28:14.116Z,983.18
2018-04-25T12:29:14.119Z,983.19
2018-04-25T12:30:12.464Z,983.16
2018-04-25T12:31:12.684Z,983.26